sensor_id;sensor_type;location;lat;lon;timestamp;P1;durP1;ratioP1;P2;durP2;ratioP2
69026;SDS011;56080;47.594;19.116;2022-12-29T00:04:06;17.30;;;9.30;;
69026;SDS011;56080;47.594;19.116;2022-12-29T00:09:05;17.30;;;9.30;;
69026;SDS011;56080;47.594;19.116;2022-12-29T00:14:15;14.40;;;8.60;;
69026;SDS011;56080;47.594;19.116;2022-12-29T00:19:05;14.40;;;8.60;;
69026;SDS011;56080;47.594;19.116;2022-12-29T00:24:17;14.20;;;8.00;;
69026;SDS011;56080;47.594;19.116;2022-12-29T00:29:16;14.20;;;8.00;;
69026;SDS011;56080;47.594;19.116;2022-12-29T00:34:17;12.10;;;7.10;;
69026;SDS011;56080;47.594;19.116;2022-12-29T00:39:19;12.10;;;7.10;;
69026;SDS011;56080;47.594;19.116;2022-12-29T00:44:16;12.20;;;6.90;;
69026;SDS011;56080;47.594;19.116;2022-12-29T00:49:17;12.20;;;6.90;;
69026;SDS011;56080;47.594;19.116;2022-12-29T00:54:05;11.80;;;6.20;;
69026;SDS011;56080;47.594;19.116;2022-12-29T00:59:09;11.80;;;6.20;;
69026;SDS011;56080;47.594;19.116;2022-12-29T01:04:12;13.20;;;6.90;;
69026;SDS011;56080;47.594;19.116;2022-12-29T01:09:16;13.20;;;6.90;;
69026;SDS011;56080;47.594;19.116;2022-12-29T01:14:06;13.40;;;7.40;;
69026;SDS011;56080;47.594;19.116;2022-12-29T01:19:09;13.40;;;7.40;;
69026;SDS011;56080;47.594;19.116;2022-12-29T01:24:06;11.30;;;6.70;;
69026;SDS011;56080;47.594;19.116;2022-12-29T01:29:05;11.30;;;6.70;;
69026;SDS011;56080;47.594;19.116;2022-12-29T01:34:05;12.20;;;6.40;;
69026;SDS011;56080;47.594;19.116;2022-12-29T01:39:06;12.20;;;6.40;;
69026;SDS011;56080;47.594;19.116;2022-12-29T01:49:18;12.30;;;6.60;;
69026;SDS011;56080;47.594;19.116;2022-12-29T01:54:16;16.60;;;9.50;;
69026;SDS011;56080;47.594;19.116;2022-12-29T01:59:12;16.60;;;9.50;;
69026;SDS011;56080;47.594;19.116;2022-12-29T02:04:05;18.90;;;11.60;;
69026;SDS011;56080;47.594;19.116;2022-12-29T02:09:06;18.90;;;11.60;;
69026;SDS011;56080;47.594;19.116;2022-12-29T02:14:09;18.20;;;10.40;;
69026;SDS011;56080;47.594;19.116;2022-12-29T02:24:57;19.70;;;10.70;;
69026;SDS011;56080;47.594;19.116;2022-12-29T02:44:16;18.80;;;11.40;;
69026;SDS011;56080;47.594;19.116;2022-12-29T02:49:18;18.80;;;11.40;;
69026;SDS011;56080;47.594;19.116;2022-12-29T02:54:16;19.20;;;11.00;;
69026;SDS011;56080;47.594;19.116;2022-12-29T02:59:05;19.20;;;11.00;;
69026;SDS011;56080;47.594;19.116;2022-12-29T03:14:27;16.40;;;8.30;;
69026;SDS011;56080;47.594;19.116;2022-12-29T03:19:08;16.40;;;8.30;;
69026;SDS011;56080;47.594;19.116;2022-12-29T03:24:06;16.90;;;9.70;;
69026;SDS011;56080;47.594;19.116;2022-12-29T03:29:07;16.90;;;9.70;;
69026;SDS011;56080;47.594;19.116;2022-12-29T03:34:06;15.20;;;8.80;;
69026;SDS011;56080;47.594;19.116;2022-12-29T03:39:10;15.20;;;8.80;;
69026;SDS011;56080;47.594;19.116;2022-12-29T03:44:06;17.20;;;9.70;;
69026;SDS011;56080;47.594;19.116;2022-12-29T03:49:05;17.20;;;9.70;;
69026;SDS011;56080;47.594;19.116;2022-12-29T03:54:05;17.90;;;9.90;;
69026;SDS011;56080;47.594;19.116;2022-12-29T03:59:05;17.90;;;9.90;;
69026;SDS011;56080;47.594;19.116;2022-12-29T04:04:05;19.50;;;10.80;;
69026;SDS011;56080;47.594;19.116;2022-12-29T04:09:05;19.50;;;10.80;;
69026;SDS011;56080;47.594;19.116;2022-12-29T04:14:05;17.70;;;10.90;;
69026;SDS011;56080;47.594;19.116;2022-12-29T04:19:06;17.70;;;10.90;;
69026;SDS011;56080;47.594;19.116;2022-12-29T04:24:05;19.00;;;10.50;;
69026;SDS011;56080;47.594;19.116;2022-12-29T04:29:06;19.00;;;10.50;;
69026;SDS011;56080;47.594;19.116;2022-12-29T04:34:07;19.90;;;10.20;;
69026;SDS011;56080;47.594;19.116;2022-12-29T04:39:06;19.90;;;10.20;;
69026;SDS011;56080;47.594;19.116;2022-12-29T04:44:06;16.80;;;10.20;;
69026;SDS011;56080;47.594;19.116;2022-12-29T04:49:06;16.80;;;10.20;;
69026;SDS011;56080;47.594;19.116;2022-12-29T04:54:05;14.50;;;8.90;;
69026;SDS011;56080;47.594;19.116;2022-12-29T04:59:05;14.50;;;8.90;;
69026;SDS011;56080;47.594;19.116;2022-12-29T05:04:06;16.40;;;9.20;;
69026;SDS011;56080;47.594;19.116;2022-12-29T05:09:05;16.40;;;9.20;;
69026;SDS011;56080;47.594;19.116;2022-12-29T05:14:05;16.90;;;9.50;;
69026;SDS011;56080;47.594;19.116;2022-12-29T05:19:05;16.90;;;9.50;;
69026;SDS011;56080;47.594;19.116;2022-12-29T05:24:06;17.60;;;9.90;;
69026;SDS011;56080;47.594;19.116;2022-12-29T05:29:05;17.60;;;9.90;;
69026;SDS011;56080;47.594;19.116;2022-12-29T05:34:05;19.10;;;10.60;;
69026;SDS011;56080;47.594;19.116;2022-12-29T05:39:06;19.10;;;10.60;;
69026;SDS011;56080;47.594;19.116;2022-12-29T05:44:05;18.90;;;10.30;;
69026;SDS011;56080;47.594;19.116;2022-12-29T05:49:06;18.90;;;10.30;;
69026;SDS011;56080;47.594;19.116;2022-12-29T05:54:05;16.90;;;9.10;;
69026;SDS011;56080;47.594;19.116;2022-12-29T05:59:05;16.90;;;9.10;;
69026;SDS011;56080;47.594;19.116;2022-12-29T06:04:06;19.30;;;10.30;;
69026;SDS011;56080;47.594;19.116;2022-12-29T06:09:05;19.30;;;10.30;;
69026;SDS011;56080;47.594;19.116;2022-12-29T06:14:05;16.20;;;9.90;;
69026;SDS011;56080;47.594;19.116;2022-12-29T06:19:06;16.20;;;9.90;;
69026;SDS011;56080;47.594;19.116;2022-12-29T06:24:05;16.10;;;9.10;;
69026;SDS011;56080;47.594;19.116;2022-12-29T06:29:06;16.10;;;9.10;;
69026;SDS011;56080;47.594;19.116;2022-12-29T06:34:05;22.40;;;12.00;;
69026;SDS011;56080;47.594;19.116;2022-12-29T06:39:06;22.40;;;12.00;;
69026;SDS011;56080;47.594;19.116;2022-12-29T06:44:05;18.30;;;10.50;;
69026;SDS011;56080;47.594;19.116;2022-12-29T06:59:06;17.60;;;8.60;;
69026;SDS011;56080;47.594;19.116;2022-12-29T07:04:06;15.20;;;8.50;;
69026;SDS011;56080;47.594;19.116;2022-12-29T07:09:07;15.20;;;8.50;;
69026;SDS011;56080;47.594;19.116;2022-12-29T07:14:06;14.30;;;7.80;;
69026;SDS011;56080;47.594;19.116;2022-12-29T07:19:06;14.30;;;7.80;;
69026;SDS011;56080;47.594;19.116;2022-12-29T07:24:07;17.90;;;9.20;;
69026;SDS011;56080;47.594;19.116;2022-12-29T07:29:05;17.90;;;9.20;;
69026;SDS011;56080;47.594;19.116;2022-12-29T07:34:07;19.60;;;11.20;;
69026;SDS011;56080;47.594;19.116;2022-12-29T07:39:06;19.60;;;11.20;;
69026;SDS011;56080;47.594;19.116;2022-12-29T07:44:08;21.90;;;11.20;;
69026;SDS011;56080;47.594;19.116;2022-12-29T07:49:06;21.90;;;11.20;;
69026;SDS011;56080;47.594;19.116;2022-12-29T07:54:05;24.00;;;13.10;;
69026;SDS011;56080;47.594;19.116;2022-12-29T07:59:06;24.00;;;13.10;;
69026;SDS011;56080;47.594;19.116;2022-12-29T08:04:08;21.80;;;12.00;;
69026;SDS011;56080;47.594;19.116;2022-12-29T08:09:07;21.80;;;12.00;;
69026;SDS011;56080;47.594;19.116;2022-12-29T08:14:06;23.20;;;12.60;;
69026;SDS011;56080;47.594;19.116;2022-12-29T08:19:06;23.20;;;12.60;;
69026;SDS011;56080;47.594;19.116;2022-12-29T08:24:06;27.30;;;15.40;;
69026;SDS011;56080;47.594;19.116;2022-12-29T08:29:06;27.30;;;15.40;;
69026;SDS011;56080;47.594;19.116;2022-12-29T08:39:06;23.50;;;13.20;;
69026;SDS011;56080;47.594;19.116;2022-12-29T08:44:06;26.00;;;13.30;;
69026;SDS011;56080;47.594;19.116;2022-12-29T08:49:06;26.00;;;13.30;;
69026;SDS011;56080;47.594;19.116;2022-12-29T08:54:06;26.30;;;13.90;;
69026;SDS011;56080;47.594;19.116;2022-12-29T08:59:06;26.30;;;13.90;;
69026;SDS011;56080;47.594;19.116;2022-12-29T09:04:16;27.10;;;15.40;;
69026;SDS011;56080;47.594;19.116;2022-12-29T09:09:06;27.10;;;15.40;;
69026;SDS011;56080;47.594;19.116;2022-12-29T09:14:06;33.00;;;17.60;;
69026;SDS011;56080;47.594;19.116;2022-12-29T09:19:06;33.00;;;17.60;;
69026;SDS011;56080;47.594;19.116;2022-12-29T09:24:05;26.80;;;16.30;;
69026;SDS011;56080;47.594;19.116;2022-12-29T09:29:07;26.80;;;16.30;;
69026;SDS011;56080;47.594;19.116;2022-12-29T09:34:06;29.00;;;16.90;;
69026;SDS011;56080;47.594;19.116;2022-12-29T09:39:06;29.00;;;16.90;;
69026;SDS011;56080;47.594;19.116;2022-12-29T09:44:07;24.40;;;15.40;;
69026;SDS011;56080;47.594;19.116;2022-12-29T09:59:15;31.70;;;18.10;;
69026;SDS011;56080;47.594;19.116;2022-12-29T10:04:06;26.80;;;16.70;;
69026;SDS011;56080;47.594;19.116;2022-12-29T10:09:17;26.80;;;16.70;;
69026;SDS011;56080;47.594;19.116;2022-12-29T10:19:14;26.80;;;15.50;;
69026;SDS011;56080;47.594;19.116;2022-12-29T10:24:07;27.60;;;16.20;;
69026;SDS011;56080;47.594;19.116;2022-12-29T10:29:14;27.60;;;16.20;;
69026;SDS011;56080;47.594;19.116;2022-12-29T10:44:09;28.20;;;16.20;;
69026;SDS011;56080;47.594;19.116;2022-12-29T10:49:06;28.20;;;16.20;;
69026;SDS011;56080;47.594;19.116;2022-12-29T10:54:20;28.90;;;16.20;;
69026;SDS011;56080;47.594;19.116;2022-12-29T10:59:14;28.90;;;16.20;;
69026;SDS011;56080;47.594;19.116;2022-12-29T11:04:33;22.00;;;13.80;;
69026;SDS011;56080;47.594;19.116;2022-12-29T11:09:12;22.00;;;13.80;;
69026;SDS011;56080;47.594;19.116;2022-12-29T11:14:12;29.70;;;15.80;;
69026;SDS011;56080;47.594;19.116;2022-12-29T11:19:09;29.70;;;15.80;;
69026;SDS011;56080;47.594;19.116;2022-12-29T11:24:24;27.30;;;16.80;;
69026;SDS011;56080;47.594;19.116;2022-12-29T11:29:17;27.30;;;16.80;;
69026;SDS011;56080;47.594;19.116;2022-12-29T11:34:06;24.70;;;15.20;;
69026;SDS011;56080;47.594;19.116;2022-12-29T11:39:06;24.70;;;15.20;;
69026;SDS011;56080;47.594;19.116;2022-12-29T11:44:10;29.20;;;15.70;;
69026;SDS011;56080;47.594;19.116;2022-12-29T11:49:10;29.20;;;15.70;;
69026;SDS011;56080;47.594;19.116;2022-12-29T11:54:09;27.20;;;17.10;;
69026;SDS011;56080;47.594;19.116;2022-12-29T12:04:13;28.00;;;16.90;;
69026;SDS011;56080;47.594;19.116;2022-12-29T12:09:10;28.00;;;16.90;;
69026;SDS011;56080;47.594;19.116;2022-12-29T12:14:17;26.60;;;16.70;;
69026;SDS011;56080;47.594;19.116;2022-12-29T12:34:13;27.90;;;15.80;;
69026;SDS011;56080;47.594;19.116;2022-12-29T13:24:16;23.80;;;14.40;;
69026;SDS011;56080;47.594;19.116;2022-12-29T13:29:23;23.80;;;14.40;;
69026;SDS011;56080;47.594;19.116;2022-12-29T13:39:16;20.40;;;13.70;;
69026;SDS011;56080;47.594;19.116;2022-12-29T13:44:07;21.90;;;14.80;;
69026;SDS011;56080;47.594;19.116;2022-12-29T13:49:13;21.90;;;14.80;;
69026;SDS011;56080;47.594;19.116;2022-12-29T13:54:35;22.40;;;13.90;;
69026;SDS011;56080;47.594;19.116;2022-12-29T13:59:48;22.40;;;13.90;;
69026;SDS011;56080;47.594;19.116;2022-12-29T14:04:13;24.70;;;15.50;;
69026;SDS011;56080;47.594;19.116;2022-12-29T14:34:24;31.00;;;18.70;;
69026;SDS011;56080;47.594;19.116;2022-12-29T14:49:08;32.90;;;19.10;;
69026;SDS011;56080;47.594;19.116;2022-12-29T14:59:09;32.10;;;18.50;;
69026;SDS011;56080;47.594;19.116;2022-12-29T15:04:14;33.30;;;18.80;;
69026;SDS011;56080;47.594;19.116;2022-12-29T15:19:20;32.80;;;19.20;;
69026;SDS011;56080;47.594;19.116;2022-12-29T15:24:09;32.20;;;18.10;;
69026;SDS011;56080;47.594;19.116;2022-12-29T15:29:27;32.20;;;18.10;;
69026;SDS011;56080;47.594;19.116;2022-12-29T15:34:19;32.70;;;19.40;;
69026;SDS011;56080;47.594;19.116;2022-12-29T15:44:14;29.60;;;17.20;;
69026;SDS011;56080;47.594;19.116;2022-12-29T15:49:06;29.60;;;17.20;;
69026;SDS011;56080;47.594;19.116;2022-12-29T15:54:14;29.60;;;17.50;;
69026;SDS011;56080;47.594;19.116;2022-12-29T15:59:18;29.60;;;17.50;;
69026;SDS011;56080;47.594;19.116;2022-12-29T16:04:11;34.30;;;19.50;;
69026;SDS011;56080;47.594;19.116;2022-12-29T16:09:14;34.30;;;19.50;;
69026;SDS011;56080;47.594;19.116;2022-12-29T16:14:08;34.60;;;18.30;;
69026;SDS011;56080;47.594;19.116;2022-12-29T16:19:26;34.60;;;18.30;;
69026;SDS011;56080;47.594;19.116;2022-12-29T16:24:26;34.60;;;19.30;;
69026;SDS011;56080;47.594;19.116;2022-12-29T16:29:07;34.60;;;19.30;;
69026;SDS011;56080;47.594;19.116;2022-12-29T16:39:19;38.40;;;20.10;;
69026;SDS011;56080;47.594;19.116;2022-12-29T16:49:07;38.20;;;21.30;;
69026;SDS011;56080;47.594;19.116;2022-12-29T16:54:06;29.40;;;17.00;;
69026;SDS011;56080;47.594;19.116;2022-12-29T16:59:23;29.40;;;17.00;;
69026;SDS011;56080;47.594;19.116;2022-12-29T17:04:11;28.20;;;16.10;;
69026;SDS011;56080;47.594;19.116;2022-12-29T17:09:21;28.20;;;16.10;;
69026;SDS011;56080;47.594;19.116;2022-12-29T17:14:12;29.00;;;16.30;;
69026;SDS011;56080;47.594;19.116;2022-12-29T17:19:07;29.00;;;16.30;;
69026;SDS011;56080;47.594;19.116;2022-12-29T17:29:06;28.60;;;15.80;;
69026;SDS011;56080;47.594;19.116;2022-12-29T17:34:06;30.90;;;17.90;;
69026;SDS011;56080;47.594;19.116;2022-12-29T17:39:08;30.90;;;17.90;;
69026;SDS011;56080;47.594;19.116;2022-12-29T17:44:08;36.30;;;20.10;;
69026;SDS011;56080;47.594;19.116;2022-12-29T17:49:11;36.30;;;20.10;;
69026;SDS011;56080;47.594;19.116;2022-12-29T17:54:08;35.10;;;20.60;;
69026;SDS011;56080;47.594;19.116;2022-12-29T17:59:10;35.10;;;20.60;;
69026;SDS011;56080;47.594;19.116;2022-12-29T18:04:08;38.90;;;21.30;;
69026;SDS011;56080;47.594;19.116;2022-12-29T18:09:06;38.90;;;21.30;;
69026;SDS011;56080;47.594;19.116;2022-12-29T18:14:10;39.90;;;22.20;;
69026;SDS011;56080;47.594;19.116;2022-12-29T18:19:06;39.90;;;22.20;;
69026;SDS011;56080;47.594;19.116;2022-12-29T18:24:08;36.70;;;20.30;;
69026;SDS011;56080;47.594;19.116;2022-12-29T18:29:07;36.70;;;20.30;;
69026;SDS011;56080;47.594;19.116;2022-12-29T18:34:11;35.20;;;19.50;;
69026;SDS011;56080;47.594;19.116;2022-12-29T18:39:06;35.20;;;19.50;;
69026;SDS011;56080;47.594;19.116;2022-12-29T18:44:09;39.00;;;22.80;;
69026;SDS011;56080;47.594;19.116;2022-12-29T18:49:06;39.00;;;22.80;;
69026;SDS011;56080;47.594;19.116;2022-12-29T18:54:13;43.10;;;25.60;;
69026;SDS011;56080;47.594;19.116;2022-12-29T18:59:06;43.10;;;25.60;;
69026;SDS011;56080;47.594;19.116;2022-12-29T19:04:06;35.10;;;20.60;;
69026;SDS011;56080;47.594;19.116;2022-12-29T19:09:06;35.10;;;20.60;;
69026;SDS011;56080;47.594;19.116;2022-12-29T19:14:09;35.40;;;19.70;;
69026;SDS011;56080;47.594;19.116;2022-12-29T19:19:16;35.40;;;19.70;;
69026;SDS011;56080;47.594;19.116;2022-12-29T19:24:08;30.30;;;16.70;;
69026;SDS011;56080;47.594;19.116;2022-12-29T19:29:09;30.30;;;16.70;;
69026;SDS011;56080;47.594;19.116;2022-12-29T19:34:12;35.90;;;21.60;;
69026;SDS011;56080;47.594;19.116;2022-12-29T19:39:07;35.90;;;21.60;;
69026;SDS011;56080;47.594;19.116;2022-12-29T19:44:06;34.70;;;20.20;;
69026;SDS011;56080;47.594;19.116;2022-12-29T19:49:08;34.70;;;20.20;;
69026;SDS011;56080;47.594;19.116;2022-12-29T19:54:07;42.10;;;23.90;;
69026;SDS011;56080;47.594;19.116;2022-12-29T19:59:06;42.10;;;23.90;;
69026;SDS011;56080;47.594;19.116;2022-12-29T20:04:09;41.40;;;24.30;;
69026;SDS011;56080;47.594;19.116;2022-12-29T20:09:06;41.40;;;24.30;;
69026;SDS011;56080;47.594;19.116;2022-12-29T20:14:06;42.40;;;25.50;;
69026;SDS011;56080;47.594;19.116;2022-12-29T20:19:06;42.40;;;25.50;;
69026;SDS011;56080;47.594;19.116;2022-12-29T20:24:06;41.10;;;23.70;;
69026;SDS011;56080;47.594;19.116;2022-12-29T20:34:06;38.30;;;22.50;;
69026;SDS011;56080;47.594;19.116;2022-12-29T20:39:07;38.30;;;22.50;;
69026;SDS011;56080;47.594;19.116;2022-12-29T20:44:06;44.60;;;25.50;;
69026;SDS011;56080;47.594;19.116;2022-12-29T20:49:06;44.60;;;25.50;;
69026;SDS011;56080;47.594;19.116;2022-12-29T20:54:06;45.80;;;26.70;;
69026;SDS011;56080;47.594;19.116;2022-12-29T20:59:16;45.80;;;26.70;;
69026;SDS011;56080;47.594;19.116;2022-12-29T21:04:06;48.70;;;28.30;;
69026;SDS011;56080;47.594;19.116;2022-12-29T21:09:06;48.70;;;28.30;;
69026;SDS011;56080;47.594;19.116;2022-12-29T21:14:11;46.80;;;27.30;;
69026;SDS011;56080;47.594;19.116;2022-12-29T21:19:06;46.80;;;27.30;;
69026;SDS011;56080;47.594;19.116;2022-12-29T21:24:15;47.40;;;26.30;;
69026;SDS011;56080;47.594;19.116;2022-12-29T21:29:06;47.40;;;26.30;;
69026;SDS011;56080;47.594;19.116;2022-12-29T21:34:07;45.30;;;27.20;;
69026;SDS011;56080;47.594;19.116;2022-12-29T21:39:07;45.30;;;27.20;;
69026;SDS011;56080;47.594;19.116;2022-12-29T21:49:06;46.30;;;25.70;;
69026;SDS011;56080;47.594;19.116;2022-12-29T21:54:16;42.60;;;26.40;;
69026;SDS011;56080;47.594;19.116;2022-12-29T21:59:17;42.60;;;26.40;;
69026;SDS011;56080;47.594;19.116;2022-12-29T22:04:17;45.80;;;24.20;;
69026;SDS011;56080;47.594;19.116;2022-12-29T22:09:16;45.80;;;24.20;;
69026;SDS011;56080;47.594;19.116;2022-12-29T22:14:07;42.20;;;24.40;;
69026;SDS011;56080;47.594;19.116;2022-12-29T22:19:06;42.20;;;24.40;;
69026;SDS011;56080;47.594;19.116;2022-12-29T22:24:06;41.60;;;25.90;;
69026;SDS011;56080;47.594;19.116;2022-12-29T22:29:08;41.60;;;25.90;;
69026;SDS011;56080;47.594;19.116;2022-12-29T22:34:07;50.90;;;29.40;;
69026;SDS011;56080;47.594;19.116;2022-12-29T22:39:08;50.90;;;29.40;;
69026;SDS011;56080;47.594;19.116;2022-12-29T22:44:06;48.30;;;27.50;;
69026;SDS011;56080;47.594;19.116;2022-12-29T22:49:10;48.30;;;27.50;;
69026;SDS011;56080;47.594;19.116;2022-12-29T22:54:07;43.20;;;26.90;;
69026;SDS011;56080;47.594;19.116;2022-12-29T22:59:07;43.20;;;26.90;;
69026;SDS011;56080;47.594;19.116;2022-12-29T23:04:16;49.20;;;28.60;;
69026;SDS011;56080;47.594;19.116;2022-12-29T23:09:07;49.20;;;28.60;;
69026;SDS011;56080;47.594;19.116;2022-12-29T23:14:06;41.10;;;25.00;;
69026;SDS011;56080;47.594;19.116;2022-12-29T23:19:06;41.10;;;25.00;;
69026;SDS011;56080;47.594;19.116;2022-12-29T23:24:08;41.20;;;23.90;;
69026;SDS011;56080;47.594;19.116;2022-12-29T23:29:13;41.20;;;23.90;;
69026;SDS011;56080;47.594;19.116;2022-12-29T23:34:08;37.50;;;22.70;;
69026;SDS011;56080;47.594;19.116;2022-12-29T23:39:06;37.50;;;22.70;;
69026;SDS011;56080;47.594;19.116;2022-12-29T23:44:06;39.40;;;24.10;;
69026;SDS011;56080;47.594;19.116;2022-12-29T23:49:07;39.40;;;24.10;;
69026;SDS011;56080;47.594;19.116;2022-12-29T23:54:06;42.00;;;25.20;;
69026;SDS011;56080;47.594;19.116;2022-12-29T23:59:06;42.00;;;25.20;;
